Flight Track Log - Related Links

Times and Time Zones

All times are in EDT time to prevent confusion due to time zone crossing. See the N7PA flight status page for this flight to view local times or setup timezone preferences in your user account.

Time Position Orientation Groundspeed Altitude Reporting Facility
EDT Latitude Longitude Course Direction KTS MPH feet Rate Location/Type
Sat 05:11:54 PM 48.7000 -122.5833 225° Southwest 190 219 2,200  Level Vancouver Center
Sat 05:12:54 PM 48.6667 -122.6333 207° Southwest 210 242 3,800 1,650 Climbing Vancouver Center
Sat 05:13:54 PM 48.6833 -122.7333 284° West 220 253 5,500 1,550 Climbing Vancouver Center
Sat 05:14:54 PM 48.6833 -122.8333 270° West 220 253 6,900 767 Climbing Vancouver Center
Sat 05:16:54 PM 48.7000 -123.0333 277° West 250 288 7,800 833 Climbing Vancouver Center
Sat 05:17:54 PM 48.7167 -123.1167 287° West 220 253 9,400 1,700 Climbing Vancouver Center
Sat 05:18:54 PM 48.7333 -123.2167 284° West 220 253 11,200 1,800 Climbing Vancouver Center
Sat 05:19:54 PM 48.7500 -123.3000 287° West 220 253 13,000 1,700 Climbing Vancouver Center
Sat 05:20:54 PM 48.7667 -123.4000 284° West 220 253 14,600 1,550 Climbing Vancouver Center
Sat 05:21:54 PM 48.7833 -123.5000 284° West 230 265 16,100 1,500 Climbing Vancouver Center
Sat 05:22:54 PM 48.8000 -123.6000 284° West 230 265 17,600 1,333 Climbing Vancouver Center
Sat 05:24:54 PM 48.8500 -123.7667 295° West 240 276 20,100 1,367 Climbing Vancouver Center
Sat 05:25:54 PM 48.9000 -123.8500 312° West 240 276 21,700 1,500 Climbing Vancouver Center
Sat 05:26:54 PM 48.9333 -123.9333 301° West 240 276 23,100 1,150 Climbing Vancouver Center
Sat 05:27:54 PM 48.9833 -124.0000 319° Northwest 260 299 24,000 450 Climbing Vancouver Center
Sat 05:28:54 PM 49.0333 -124.1000 307° West 290 334 24,000 400 Level Vancouver Center
Sat 05:29:54 PM 49.0833 -124.2000 307° West 300 345 24,800 1,100 Climbing Vancouver Center
Sat 05:30:54 PM 49.1333 -124.2833 313° West 280 322 26,200 1,200 Climbing Vancouver Center
Sat 05:31:54 PM 49.1833 -124.3833 307° West 280 322 27,200 950 Climbing Vancouver Center
Sat 05:32:54 PM 49.2333 -124.4833 307° West 280 322 28,100 800 Climbing Vancouver Center
Sat 05:33:54 PM 49.2833 -124.5667 313° West 290 334 28,800 800 Climbing Vancouver Center
Sat 05:34:54 PM 49.3333 -124.6667 308° West 300 345 29,700 600 Climbing Vancouver Center
Sat 05:35:54 PM 49.4000 -124.7667 316° Northwest 300 345 30,000 350 Climbing Vancouver Center
Sat 05:36:54 PM 49.4500 -124.9000 300° West 320 368 30,400 1,000 Climbing Vancouver Center
Sat 05:37:54 PM 49.5167 -124.9500 334° Northwest 310 357 32,000 1,250 Climbing Vancouver Center
Sat 05:38:54 PM 49.5833 -125.0333 321° Northwest 290 334 32,900 750 Climbing Vancouver Center
Sat 05:39:54 PM 49.6500 -125.1167 321° Northwest 290 334 33,500 450 Climbing Vancouver Center
Sat 05:40:54 PM 49.7167 -125.2000 321° Northwest 300 345 33,800 250 Climbing Vancouver Center
Sat 05:41:54 PM 49.8000 -125.2667 333° Northwest 310 357 34,000 100 Climbing Vancouver Center
Sat 05:42:54 PM 49.8667 -125.3500 321° Northwest 320 368 34,000  Level Vancouver Center
Sat 05:43:54 PM 49.9500 -125.4333 327° Northwest 330 380 34,000  Level Vancouver Center
Sat 05:44:54 PM 50.0167 -125.5167 321° Northwest 340 391 34,000  Level Vancouver Center
Sat 05:45:54 PM 50.1000 -125.6000 327° Northwest 350 403 34,000  Level Vancouver Center
Sat 05:46:54 PM 50.1667 -125.7000 316° Northwest 350 403 34,000  Level Vancouver Center
Sat 05:47:54 PM 50.2500 -125.7833 327° Northwest 360 414 34,000  Level Vancouver Center
Sat 05:48:54 PM 50.3333 -125.8667 327° Northwest 360 414 34,000  Level Vancouver Center
Sat 05:49:54 PM 50.4167 -125.9667 323° Northwest 360 414 34,000  Level Vancouver Center
Sat 05:50:54 PM 50.4833 -126.0500 322° Northwest 360 414 34,000  Level Vancouver Center
Sat 05:51:54 PM 50.5833 -126.1667 323° Northwest 360 414 34,000  Level Vancouver Center
Sat 05:52:54 PM 50.6500 -126.2500 322° Northwest 360 414 34,000  Level Vancouver Center
Sat 05:53:54 PM 50.7333 -126.3500 323° Northwest 350 403 34,000  Level Vancouver Center
Sat 05:54:54 PM 50.8167 -126.4333 328° Northwest 350 403 34,000  Level Vancouver Center
Sat 05:55:54 PM 50.9000 -126.5333 323° Northwest 350 403 34,000  Level Vancouver Center
Sat 05:56:54 PM 50.9667 -126.6167 322° Northwest 350 403 34,000  Level Vancouver Center
Sat 05:57:54 PM 51.0333 -126.7167 317° Northwest 350 403 34,000  Level Vancouver Center
Sat 05:58:54 PM 51.1167 -126.8000 328° Northwest 350 403 34,000  Level Vancouver Center
Sat 05:59:54 PM 51.2000 -126.8833 328° Northwest 350 403 34,000  Level Vancouver Center
Sat 06:00:54 PM 51.2833 -127.0000 319° Northwest 350 403 34,000  Level Vancouver Center
Sat 06:01:54 PM 51.3500 -127.0833 322° Northwest 350 403 34,000  Level Vancouver Center
Sat 06:02:54 PM 51.4333 -127.1667 328° Northwest 350 403 34,000  Level Vancouver Center
Sat 06:03:54 PM 51.5167 -127.2667 323° Northwest 350 403 34,000  Level Vancouver Center
Sat 06:04:54 PM 51.5833 -127.3667 317° Northwest 350 403 34,000  Level Vancouver Center
Sat 06:05:54 PM 51.6500 -127.4667 317° Northwest 340 391 34,000  Level Vancouver Center
Sat 06:06:54 PM 51.7333 -127.5500 328° Northwest 340 391 34,000  Level Vancouver Center
Sat 06:07:54 PM 51.8167 -127.6667 319° Northwest 340 391 34,000  Level Vancouver Center
Sat 06:09:54 PM 51.9667 -127.8333 326° Northwest 340 391 34,000  Level Vancouver Center
Sat 06:10:54 PM 52.0167 -127.9167 314° West 340 391 34,000  Level Vancouver Center
Sat 06:11:54 PM 52.1000 -128.0167 324° Northwest 330 380 34,000  Level Vancouver Center
Sat 06:12:54 PM 52.1667 -128.1000 323° Northwest 330 380 34,000  Level Vancouver Center
Sat 06:13:54 PM 52.2500 -128.2167 319° Northwest 330 380 34,000  Level Vancouver Center
Sat 06:14:54 PM 52.3167 -128.3000 323° Northwest 330 380 34,000 50 Level Vancouver Center
Sat 06:15:54 PM 52.3833 -128.4000 318° Northwest 320 368 34,100  Climbing Vancouver Center
Sat 06:16:54 PM 52.4500 -128.4833 323° Northwest 320 368 34,000 -50 Descending Vancouver Center
Sat 06:17:54 PM 52.5333 -128.5667 329° Northwest 320 368 34,000  Level Vancouver Center
Sat 06:18:54 PM 52.6000 -128.6667 318° Northwest 320 368 34,000  Level Vancouver Center
Sat 06:19:54 PM 52.6833 -128.7500 329° Northwest 320 368 34,000  Level Vancouver Center
Sat 06:20:54 PM 52.7333 -128.8500 310° West 320 368 34,000  Level Vancouver Center
Sat 06:21:54 PM 52.8167 -128.9333 329° Northwest 320 368 34,000  Level Vancouver Center
Sat 06:22:54 PM 52.8833 -129.0333 318° Northwest 320 368 34,000  Level Vancouver Center
Sat 06:23:54 PM 52.9500 -129.1167 323° Northwest 310 357 34,000  Level Vancouver Center
Sat 06:24:54 PM 53.0000 -129.2167 310° West 310 357 34,000  Level Vancouver Center
Sat 06:25:54 PM 53.0833 -129.3000 329° Northwest 310 357 34,000  Level Vancouver Center
Sat 06:26:54 PM 53.1500 -129.4000 318° Northwest 310 357 34,000  Level Vancouver Center
Sat 06:27:54 PM 53.2167 -129.4833 323° Northwest 310 357 34,000  Level Vancouver Center
Sat 06:28:54 PM 53.2833 -129.5833 318° Northwest 310 357 34,000  Level Vancouver Center
Sat 06:29:54 PM 53.3333 -129.6667 315° West 310 357 34,000  Level Vancouver Center
Sat 06:30:54 PM 53.4167 -129.7667 324° Northwest 310 357 34,000  Level Vancouver Center
Sat 06:31:54 PM 53.4833 -129.8333 329° Northwest 310 357 34,000  Level Vancouver Center
Sat 06:32:54 PM 53.5500 -129.9167 323° Northwest 300 345 34,000  Level Vancouver Center
Sat 06:33:54 PM 53.6000 -130.0167 310° West 300 345 34,000  Level Vancouver Center
Sat 06:34:54 PM 53.6667 -130.1167 318° Northwest 300 345 34,000  Level Vancouver Center
Sat 06:35:54 PM 53.7333 -130.2000 324° Northwest 300 345 34,000  Level Vancouver Center
Sat 06:36:54 PM 53.8000 -130.3000 318° Northwest 300 345 34,000  Level Vancouver Center
Sat 06:37:54 PM 53.8667 -130.4000 319° Northwest 300 345 34,000  Level Vancouver Center
Sat 06:38:54 PM 53.9333 -130.4667 330° Northwest 300 345 34,000  Level Vancouver Center
Sat 06:39:54 PM 54.0000 -130.5667 319° Northwest 290 334 34,000  Level Vancouver Center
Sat 06:40:54 PM 54.0500 -130.6500 316° Northwest 290 334 34,000  Level Vancouver Center
Sat 06:41:54 PM 54.1167 -130.7500 319° Northwest 290 334 34,000  Level Vancouver Center
Sat 06:42:54 PM 54.1833 -130.8167 330° Northwest 290 334 34,000  Level Vancouver Center
Sat 06:43:54 PM 54.2500 -130.9167 319° Northwest 290 334 34,000  Level Vancouver Center
Sat 06:44:54 PM 54.3000 -131.0167 311° West 290 334 34,000  Level Vancouver Center
Sat 06:45:54 PM 54.3667 -131.1000 324° Northwest 290 334 34,000  Level Vancouver Center
Sat 06:46:54 PM 54.4167 -131.1667 322° Northwest 290 334 34,000  Level Vancouver Center
Sat 06:47:54 PM 54.4833 -131.2667 319° Northwest 290 334 34,000  Level Vancouver Center
Sat 06:48:54 PM 54.5333 -131.3667 311° West 280 322 34,000  Level Vancouver Center
Sat 06:49:54 PM 54.6000 -131.4667 319° Northwest 280 322 34,000  Level Vancouver Center
Sat 06:50:54 PM 54.6500 -131.5333 322° Northwest 280 322 34,000  Level Vancouver Center
Sat 06:52:27 PM 54.7500 -131.6333 330° Northwest 280 322 34,000  Level Anchorage Center
Sat 06:53:27 PM 54.8167 -131.7333 319° Northwest 280 322 34,000  Level Anchorage Center
Sat 06:54:28 PM 54.8667 -131.8167 316° Northwest 280 322 34,000  Level Anchorage Center
Sat 06:55:28 PM 54.9167 -131.9000 316° Northwest 280 322 34,000  Level Anchorage Center
Sat 06:56:28 PM 54.9833 -131.9833 324° Northwest 280 322 34,000  Level Anchorage Center
Sat 06:57:29 PM 55.0333 -132.0667 316° Northwest 270 311 34,000  Level Anchorage Center
Sat 06:58:29 PM 55.1000 -132.1667 319° Northwest 280 322 34,000  Level Anchorage Center
Sat 06:59:29 PM 55.1500 -132.2500 316° Northwest 270 311 34,000  Level Anchorage Center
Sat 07:01:30 PM 55.2667 -132.4333 318° Northwest 270 311 34,000  Level Anchorage Center
Sat 07:02:30 PM 55.3167 -132.5167 317° Northwest 280 322 34,000  Level Anchorage Center
Sat 07:03:30 PM 55.3833 -132.6000 325° Northwest 270 311 34,000  Level Anchorage Center
Sat 07:04:31 PM 55.4333 -132.7000 311° West 280 322 34,000  Level Anchorage Center
Sat 07:05:31 PM 55.4833 -132.7833 317° Northwest 270 311 34,000  Level Anchorage Center
Sat 07:06:32 PM 55.5500 -132.8667 325° Northwest 270 311 34,000  Level Anchorage Center
Sat 07:07:32 PM 55.6000 -132.9667 312° West 270 311 34,000  Level Anchorage Center
Sat 07:08:32 PM 55.6667 -133.0500 325° Northwest 270 311 34,000  Level Anchorage Center
Sat 07:09:33 PM 55.7167 -133.1333 317° Northwest 270 311 34,000  Level Anchorage Center
Sat 07:10:33 PM 55.7667 -133.2333 312° West 270 311 34,000  Level Anchorage Center
Sat 07:11:33 PM 55.8167 -133.3167 317° Northwest 270 311 34,000  Level Anchorage Center
Sat 07:12:34 PM 55.8833 -133.4167 320° Northwest 280 322 34,000  Level Anchorage Center
Sat 07:13:34 PM 55.9333 -133.5000 317° Northwest 270 311 34,000  Level Anchorage Center
Sat 07:14:35 PM 56.0000 -133.6000 320° Northwest 280 322 34,000  Level Anchorage Center
Sat 07:15:35 PM 56.0500 -133.6833 317° Northwest 280 322 34,000  Level Anchorage Center
Sat 07:16:35 PM 56.1000 -133.7833 312° West 270 311 34,000  Level Anchorage Center
Sat 07:17:36 PM 56.1667 -133.8667 325° Northwest 270 311 34,000  Level Anchorage Center
Sat 07:18:36 PM 56.2167 -133.9667 312° West 270 311 34,000 -150 Level Anchorage Center
Sat 07:19:36 PM 56.2667 -134.0500 317° Northwest 270 311 33,700 -900 Descending Anchorage Center
Sat 07:20:36 PM 56.3333 -134.1500 320° Northwest 280 322 32,200 -1,289 Descending Anchorage Center
Sat 07:21:37 PM 56.3833 -134.2500 312° West 280 322 31,100 -1,388 Descending Anchorage Center
Sat 07:22:37 PM 56.4500 -134.3500 320° Northwest 290 334 29,400 -1,587 Descending Anchorage Center
Sat 07:23:38 PM 56.5000 -134.4500 312° West 300 345 27,900 -1,488 Descending Anchorage Center
Sat 07:24:38 PM 56.5667 -134.5500 320° Northwest 280 322 26,400 -1,600 Descending Anchorage Center
Sat 07:25:38 PM 56.6000 -134.6500 301° West 300 345 24,700 -1,884 Descending Anchorage Center
Sat 07:26:39 PM 56.6333 -134.7833 294° West 290 334 22,600 -2,083 Descending Anchorage Center
Sat 07:27:39 PM 56.6833 -134.9167 304° West 300 345 20,500 -2,150 Descending Anchorage Center
Sat 07:28:39 PM 56.7167 -135.0667 292° West 300 345 18,300 -2,132 Descending Anchorage Center
Sat 07:29:40 PM 56.7500 -135.2000 295° West 290 334 16,200 -2,430 Descending Anchorage Center
Sat 07:30:40 PM 56.8000 -135.3167 308° West 280 322 13,400 -2,950 Descending Anchorage Center
Sat 07:31:40 PM 56.8167 -135.4333 285° West 270 311 10,300 -3,110 Descending Anchorage Center
Sat 07:33:24 PM 56.9167 -135.5500 328° Northwest 230 265 4,900 -3,000 Descending Vancouver Center
Sat 07:34:24 PM 56.9500 -135.4333 62° Northeast 240 276 2,100 -1,850 Descending Vancouver Center
Sat 07:35:24 PM 56.9833 -135.3500 54° Northeast 170 196 1,200 -750 Descending Vancouver Center
Sat 07:36:24 PM 57.0167 -135.3667 345° North 120 138 600 -600 Descending Vancouver Center

Login

Don't have an account? Register now (free) for customized features, flight alerts, and more!